sensor_id;sensor_type;location;lat;lon;timestamp;P1;durP1;ratioP1;P2;durP2;ratioP2
73113;SDS011;61301;51.956;5.876;2024-03-02T00:00:11;1.80;;;1.30;;
73113;SDS011;61301;51.956;5.876;2024-03-02T00:02:49;2.35;;;1.02;;
73113;SDS011;61301;51.956;5.876;2024-03-02T00:05:18;2.63;;;1.40;;
73113;SDS011;61301;51.956;5.876;2024-03-02T00:07:52;1.80;;;1.33;;
73113;SDS011;61301;51.956;5.876;2024-03-02T00:10:20;2.28;;;0.98;;
73113;SDS011;61301;51.956;5.876;2024-03-02T00:12:49;4.00;;;1.45;;
73113;SDS011;61301;51.956;5.876;2024-03-02T00:17:56;2.70;;;1.42;;
73113;SDS011;61301;51.956;5.876;2024-03-02T00:20:23;2.78;;;1.20;;
73113;SDS011;61301;51.956;5.876;2024-03-02T00:25:47;2.60;;;1.23;;
73113;SDS011;61301;51.956;5.876;2024-03-02T00:28:18;2.60;;;1.02;;
73113;SDS011;61301;51.956;5.876;2024-03-02T00:30:54;2.10;;;0.95;;
73113;SDS011;61301;51.956;5.876;2024-03-02T00:33:37;2.30;;;0.90;;
73113;SDS011;61301;51.956;5.876;2024-03-02T00:36:06;2.40;;;0.90;;
73113;SDS011;61301;51.956;5.876;2024-03-02T00:38:34;3.75;;;1.00;;
73113;SDS011;61301;51.956;5.876;2024-03-02T00:43:44;2.35;;;1.08;;
73113;SDS011;61301;51.956;5.876;2024-03-02T00:46:15;2.67;;;0.90;;
73113;SDS011;61301;51.956;5.876;2024-03-02T00:48:46;2.88;;;1.10;;
73113;SDS011;61301;51.956;5.876;2024-03-02T00:51:16;2.05;;;1.00;;
73113;SDS011;61301;51.956;5.876;2024-03-02T00:53:42;4.15;;;1.30;;
73113;SDS011;61301;51.956;5.876;2024-03-02T00:56:11;1.55;;;1.10;;
73113;SDS011;61301;51.956;5.876;2024-03-02T00:58:38;2.70;;;1.30;;
73113;SDS011;61301;51.956;5.876;2024-03-02T01:01:05;2.22;;;1.20;;
73113;SDS011;61301;51.956;5.876;2024-03-02T01:03:32;2.88;;;1.13;;
73113;SDS011;61301;51.956;5.876;2024-03-02T01:05:59;3.00;;;1.50;;
73113;SDS011;61301;51.956;5.876;2024-03-02T01:08:25;1.33;;;0.75;;
73113;SDS011;61301;51.956;5.876;2024-03-02T01:10:52;2.15;;;1.00;;
73113;SDS011;61301;51.956;5.876;2024-03-02T01:13:18;3.10;;;1.08;;
73113;SDS011;61301;51.956;5.876;2024-03-02T01:15:44;2.10;;;1.20;;
73113;SDS011;61301;51.956;5.876;2024-03-02T01:18:10;1.75;;;1.10;;
73113;SDS011;61301;51.956;5.876;2024-03-02T01:20:36;4.82;;;1.35;;
73113;SDS011;61301;51.956;5.876;2024-03-02T01:23:02;5.00;;;1.27;;
73113;SDS011;61301;51.956;5.876;2024-03-02T01:25:28;2.60;;;1.00;;
73113;SDS011;61301;51.956;5.876;2024-03-02T01:27:54;2.78;;;1.60;;
73113;SDS011;61301;51.956;5.876;2024-03-02T01:30:20;2.90;;;1.08;;
73113;SDS011;61301;51.956;5.876;2024-03-02T01:32:47;1.42;;;0.80;;
73113;SDS011;61301;51.956;5.876;2024-03-02T01:35:13;1.75;;;0.95;;
73113;SDS011;61301;51.956;5.876;2024-03-02T01:37:43;1.80;;;0.60;;
73113;SDS011;61301;51.956;5.876;2024-03-02T01:40:09;1.23;;;0.52;;
73113;SDS011;61301;51.956;5.876;2024-03-02T01:42:37;2.67;;;0.80;;
73113;SDS011;61301;51.956;5.876;2024-03-02T01:45:07;0.98;;;0.50;;
73113;SDS011;61301;51.956;5.876;2024-03-02T01:47:37;1.45;;;0.30;;
73113;SDS011;61301;51.956;5.876;2024-03-02T01:50:03;0.50;;;0.30;;
73113;SDS011;61301;51.956;5.876;2024-03-02T01:52:29;1.85;;;0.30;;
73113;SDS011;61301;51.956;5.876;2024-03-02T01:54:55;0.25;;;0.25;;
73113;SDS011;61301;51.956;5.876;2024-03-02T01:57:21;0.57;;;0.20;;
73113;SDS011;61301;51.956;5.876;2024-03-02T01:59:48;0.60;;;0.30;;
73113;SDS011;61301;51.956;5.876;2024-03-02T02:02:14;0.47;;;0.28;;
73113;SDS011;61301;51.956;5.876;2024-03-02T02:04:41;0.43;;;0.20;;
73113;SDS011;61301;51.956;5.876;2024-03-02T02:07:07;1.75;;;0.73;;
73113;SDS011;61301;51.956;5.876;2024-03-02T02:09:33;0.20;;;0.20;;
73113;SDS011;61301;51.956;5.876;2024-03-02T02:11:59;1.20;;;0.20;;
73113;SDS011;61301;51.956;5.876;2024-03-02T02:14:25;0.73;;;0.30;;
73113;SDS011;61301;51.956;5.876;2024-03-02T02:16:51;0.63;;;0.47;;
73113;SDS011;61301;51.956;5.876;2024-03-02T02:19:17;0.20;;;0.20;;
73113;SDS011;61301;51.956;5.876;2024-03-02T02:21:43;0.73;;;0.38;;
73113;SDS011;61301;51.956;5.876;2024-03-02T02:24:09;0.30;;;0.20;;
73113;SDS011;61301;51.956;5.876;2024-03-02T02:26:36;0.47;;;0.30;;
73113;SDS011;61301;51.956;5.876;2024-03-02T02:29:02;0.40;;;0.10;;
73113;SDS011;61301;51.956;5.876;2024-03-02T02:31:36;0.57;;;0.17;;
73113;SDS011;61301;51.956;5.876;2024-03-02T02:34:05;0.40;;;0.20;;
73113;SDS011;61301;51.956;5.876;2024-03-02T02:36:32;0.10;;;0.10;;
73113;SDS011;61301;51.956;5.876;2024-03-02T02:39:00;0.98;;;0.28;;
73113;SDS011;61301;51.956;5.876;2024-03-02T02:41:29;1.25;;;0.30;;
73113;SDS011;61301;51.956;5.876;2024-03-02T02:43:55;0.93;;;0.68;;
73113;SDS011;61301;51.956;5.876;2024-03-02T02:46:22;0.52;;;0.30;;
73113;SDS011;61301;51.956;5.876;2024-03-02T02:48:48;0.35;;;0.22;;
73113;SDS011;61301;51.956;5.876;2024-03-02T02:51:14;0.30;;;0.30;;
73113;SDS011;61301;51.956;5.876;2024-03-02T02:53:40;0.35;;;0.22;;
73113;SDS011;61301;51.956;5.876;2024-03-02T02:56:06;0.28;;;0.15;;
73113;SDS011;61301;51.956;5.876;2024-03-02T02:58:32;2.22;;;0.22;;
73113;SDS011;61301;51.956;5.876;2024-03-02T03:00:58;0.20;;;0.20;;
73113;SDS011;61301;51.956;5.876;2024-03-02T03:03:24;0.40;;;0.20;;
73113;SDS011;61301;51.956;5.876;2024-03-02T03:05:50;0.30;;;0.20;;
73113;SDS011;61301;51.956;5.876;2024-03-02T03:08:16;0.77;;;0.20;;
73113;SDS011;61301;51.956;5.876;2024-03-02T03:10:42;0.10;;;0.10;;
73113;SDS011;61301;51.956;5.876;2024-03-02T03:13:08;0.55;;;0.30;;
73113;SDS011;61301;51.956;5.876;2024-03-02T03:15:35;1.13;;;0.30;;
73113;SDS011;61301;51.956;5.876;2024-03-02T03:18:04;1.80;;;0.30;;
73113;SDS011;61301;51.956;5.876;2024-03-02T03:20:30;0.10;;;0.10;;
73113;SDS011;61301;51.956;5.876;2024-03-02T03:22:56;0.77;;;0.15;;
73113;SDS011;61301;51.956;5.876;2024-03-02T03:25:23;0.82;;;0.25;;
73113;SDS011;61301;51.956;5.876;2024-03-02T03:27:49;0.35;;;0.20;;
73113;SDS011;61301;51.956;5.876;2024-03-02T03:30:16;0.25;;;0.10;;
73113;SDS011;61301;51.956;5.876;2024-03-02T03:32:42;0.32;;;0.13;;
73113;SDS011;61301;51.956;5.876;2024-03-02T03:35:08;1.85;;;0.20;;
73113;SDS011;61301;51.956;5.876;2024-03-02T03:37:34;0.13;;;0.10;;
73113;SDS011;61301;51.956;5.876;2024-03-02T03:40:00;0.30;;;0.20;;
73113;SDS011;61301;51.956;5.876;2024-03-02T03:42:38;0.28;;;0.10;;
73113;SDS011;61301;51.956;5.876;2024-03-02T03:45:05;0.82;;;0.22;;
73113;SDS011;61301;51.956;5.876;2024-03-02T03:47:32;0.35;;;0.10;;
73113;SDS011;61301;51.956;5.876;2024-03-02T03:49:58;0.68;;;0.20;;
73113;SDS011;61301;51.956;5.876;2024-03-02T03:52:24;0.10;;;0.10;;
73113;SDS011;61301;51.956;5.876;2024-03-02T03:54:50;1.67;;;0.50;;
73113;SDS011;61301;51.956;5.876;2024-03-02T03:57:16;0.38;;;0.25;;
73113;SDS011;61301;51.956;5.876;2024-03-02T03:59:43;0.47;;;0.35;;
73113;SDS011;61301;51.956;5.876;2024-03-02T04:02:10;0.90;;;0.30;;
73113;SDS011;61301;51.956;5.876;2024-03-02T04:04:38;1.05;;;0.47;;
73113;SDS011;61301;51.956;5.876;2024-03-02T04:07:04;0.30;;;0.20;;
73113;SDS011;61301;51.956;5.876;2024-03-02T04:09:30;1.00;;;0.30;;
73113;SDS011;61301;51.956;5.876;2024-03-02T04:11:56;0.30;;;0.30;;
73113;SDS011;61301;51.956;5.876;2024-03-02T04:14:22;0.20;;;0.17;;
73113;SDS011;61301;51.956;5.876;2024-03-02T04:16:48;1.13;;;0.30;;
73113;SDS011;61301;51.956;5.876;2024-03-02T04:19:14;0.55;;;0.38;;
73113;SDS011;61301;51.956;5.876;2024-03-02T04:21:40;0.55;;;0.20;;
73113;SDS011;61301;51.956;5.876;2024-03-02T04:24:06;0.10;;;0.10;;
73113;SDS011;61301;51.956;5.876;2024-03-02T04:26:32;0.13;;;0.13;;
73113;SDS011;61301;51.956;5.876;2024-03-02T04:28:58;0.30;;;0.20;;
73113;SDS011;61301;51.956;5.876;2024-03-02T04:31:24;0.43;;;0.30;;
73113;SDS011;61301;51.956;5.876;2024-03-02T04:33:50;0.77;;;0.28;;
73113;SDS011;61301;51.956;5.876;2024-03-02T04:36:16;0.52;;;0.20;;
73113;SDS011;61301;51.956;5.876;2024-03-02T04:38:42;1.00;;;0.40;;
73113;SDS011;61301;51.956;5.876;2024-03-02T04:41:08;0.20;;;0.20;;
73113;SDS011;61301;51.956;5.876;2024-03-02T04:43:34;0.15;;;0.13;;
73113;SDS011;61301;51.956;5.876;2024-03-02T04:46:00;1.23;;;0.28;;
73113;SDS011;61301;51.956;5.876;2024-03-02T04:48:27;0.30;;;0.20;;
73113;SDS011;61301;51.956;5.876;2024-03-02T04:50:53;0.55;;;0.30;;
73113;SDS011;61301;51.956;5.876;2024-03-02T04:53:19;0.77;;;0.40;;
73113;SDS011;61301;51.956;5.876;2024-03-02T04:55:45;0.90;;;0.30;;
73113;SDS011;61301;51.956;5.876;2024-03-02T05:00:55;0.90;;;0.40;;
73113;SDS011;61301;51.956;5.876;2024-03-02T05:03:22;1.38;;;0.30;;
73113;SDS011;61301;51.956;5.876;2024-03-02T05:05:48;0.50;;;0.20;;
73113;SDS011;61301;51.956;5.876;2024-03-02T05:08:14;2.65;;;0.50;;
73113;SDS011;61301;51.956;5.876;2024-03-02T05:10:41;1.05;;;0.40;;
73113;SDS011;61301;51.956;5.876;2024-03-02T05:13:07;2.60;;;0.30;;
73113;SDS011;61301;51.956;5.876;2024-03-02T05:15:36;2.13;;;0.22;;
73113;SDS011;61301;51.956;5.876;2024-03-02T05:18:02;0.95;;;0.30;;
73113;SDS011;61301;51.956;5.876;2024-03-02T05:20:30;0.95;;;0.25;;
73113;SDS011;61301;51.956;5.876;2024-03-02T05:22:56;1.48;;;0.32;;
73113;SDS011;61301;51.956;5.876;2024-03-02T05:25:22;0.85;;;0.43;;
73113;SDS011;61301;51.956;5.876;2024-03-02T05:27:48;2.65;;;0.20;;
73113;SDS011;61301;51.956;5.876;2024-03-02T05:30:14;1.52;;;0.30;;
73113;SDS011;61301;51.956;5.876;2024-03-02T05:32:40;0.75;;;0.30;;
73113;SDS011;61301;51.956;5.876;2024-03-02T05:35:06;1.20;;;0.47;;
73113;SDS011;61301;51.956;5.876;2024-03-02T05:37:39;0.47;;;0.28;;
73113;SDS011;61301;51.956;5.876;2024-03-02T05:40:06;1.95;;;0.50;;
73113;SDS011;61301;51.956;5.876;2024-03-02T05:42:32;0.95;;;0.40;;
73113;SDS011;61301;51.956;5.876;2024-03-02T05:44:58;2.30;;;0.40;;
73113;SDS011;61301;51.956;5.876;2024-03-02T05:47:24;1.73;;;0.40;;
73113;SDS011;61301;51.956;5.876;2024-03-02T05:49:50;0.75;;;0.30;;
73113;SDS011;61301;51.956;5.876;2024-03-02T05:52:19;1.63;;;0.40;;
73113;SDS011;61301;51.956;5.876;2024-03-02T05:54:46;2.15;;;0.47;;
73113;SDS011;61301;51.956;5.876;2024-03-02T05:57:12;0.47;;;0.20;;
73113;SDS011;61301;51.956;5.876;2024-03-02T06:00:04;1.15;;;0.38;;
73113;SDS011;61301;51.956;5.876;2024-03-02T06:02:41;2.53;;;0.30;;
73113;SDS011;61301;51.956;5.876;2024-03-02T06:05:07;3.05;;;0.38;;
73113;SDS011;61301;51.956;5.876;2024-03-02T06:07:33;0.90;;;0.20;;
73113;SDS011;61301;51.956;5.876;2024-03-02T06:10:02;2.08;;;0.65;;
73113;SDS011;61301;51.956;5.876;2024-03-02T06:12:30;1.63;;;0.40;;
73113;SDS011;61301;51.956;5.876;2024-03-02T06:14:58;0.80;;;0.30;;
73113;SDS011;61301;51.956;5.876;2024-03-02T06:17:24;1.40;;;0.38;;
73113;SDS011;61301;51.956;5.876;2024-03-02T06:19:50;1.15;;;0.50;;
73113;SDS011;61301;51.956;5.876;2024-03-02T06:22:18;1.83;;;0.65;;
73113;SDS011;61301;51.956;5.876;2024-03-02T06:24:44;1.10;;;0.40;;
73113;SDS011;61301;51.956;5.876;2024-03-02T06:27:10;1.08;;;0.30;;
73113;SDS011;61301;51.956;5.876;2024-03-02T06:29:36;1.17;;;0.30;;
73113;SDS011;61301;51.956;5.876;2024-03-02T06:32:02;3.42;;;0.40;;
73113;SDS011;61301;51.956;5.876;2024-03-02T06:34:29;2.75;;;0.57;;
73113;SDS011;61301;51.956;5.876;2024-03-02T06:36:55;1.05;;;0.22;;
73113;SDS011;61301;51.956;5.876;2024-03-02T06:39:21;0.90;;;0.20;;
73113;SDS011;61301;51.956;5.876;2024-03-02T06:41:47;2.20;;;0.38;;
73113;SDS011;61301;51.956;5.876;2024-03-02T06:44:13;1.02;;;0.20;;
73113;SDS011;61301;51.956;5.876;2024-03-02T06:46:39;1.95;;;0.50;;
73113;SDS011;61301;51.956;5.876;2024-03-02T06:49:05;0.57;;;0.38;;
73113;SDS011;61301;51.956;5.876;2024-03-02T06:51:31;1.95;;;0.65;;
73113;SDS011;61301;51.956;5.876;2024-03-02T06:53:59;1.95;;;0.45;;
73113;SDS011;61301;51.956;5.876;2024-03-02T06:56:26;2.15;;;0.40;;
73113;SDS011;61301;51.956;5.876;2024-03-02T06:58:52;2.38;;;0.40;;
73113;SDS011;61301;51.956;5.876;2024-03-02T07:01:18;1.40;;;0.50;;
73113;SDS011;61301;51.956;5.876;2024-03-02T07:03:46;2.05;;;0.50;;
73113;SDS011;61301;51.956;5.876;2024-03-02T07:06:11;0.75;;;0.20;;
73113;SDS011;61301;51.956;5.876;2024-03-02T07:08:40;0.38;;;0.30;;
73113;SDS011;61301;51.956;5.876;2024-03-02T07:11:06;1.27;;;0.40;;
73113;SDS011;61301;51.956;5.876;2024-03-02T07:13:32;2.10;;;0.32;;
73113;SDS011;61301;51.956;5.876;2024-03-02T07:15:58;1.70;;;0.40;;
73113;SDS011;61301;51.956;5.876;2024-03-02T07:18:43;1.13;;;0.50;;
73113;SDS011;61301;51.956;5.876;2024-03-02T07:21:16;1.98;;;0.32;;
73113;SDS011;61301;51.956;5.876;2024-03-02T07:23:42;1.02;;;0.32;;
73113;SDS011;61301;51.956;5.876;2024-03-02T07:26:08;1.58;;;0.40;;
73113;SDS011;61301;51.956;5.876;2024-03-02T07:28:34;0.70;;;0.40;;
73113;SDS011;61301;51.956;5.876;2024-03-02T07:31:01;1.27;;;0.30;;
73113;SDS011;61301;51.956;5.876;2024-03-02T07:33:28;2.28;;;0.70;;
73113;SDS011;61301;51.956;5.876;2024-03-02T07:35:54;1.08;;;0.38;;
73113;SDS011;61301;51.956;5.876;2024-03-02T07:38:25;1.40;;;0.52;;
73113;SDS011;61301;51.956;5.876;2024-03-02T07:40:51;0.77;;;0.45;;
73113;SDS011;61301;51.956;5.876;2024-03-02T07:43:17;1.33;;;0.77;;
73113;SDS011;61301;51.956;5.876;2024-03-02T07:45:45;1.55;;;0.68;;
73113;SDS011;61301;51.956;5.876;2024-03-02T07:48:11;1.00;;;0.70;;
73113;SDS011;61301;51.956;5.876;2024-03-02T07:50:38;1.70;;;0.60;;
73113;SDS011;61301;51.956;5.876;2024-03-02T07:53:05;2.28;;;0.73;;
73113;SDS011;61301;51.956;5.876;2024-03-02T07:55:31;1.52;;;0.70;;
73113;SDS011;61301;51.956;5.876;2024-03-02T07:57:57;4.80;;;1.23;;
73113;SDS011;61301;51.956;5.876;2024-03-02T08:00:23;1.48;;;0.50;;
73113;SDS011;61301;51.956;5.876;2024-03-02T08:02:51;3.20;;;0.70;;
73113;SDS011;61301;51.956;5.876;2024-03-02T08:05:18;1.05;;;0.70;;
73113;SDS011;61301;51.956;5.876;2024-03-02T08:07:47;2.97;;;0.60;;
73113;SDS011;61301;51.956;5.876;2024-03-02T08:10:13;1.02;;;0.47;;
73113;SDS011;61301;51.956;5.876;2024-03-02T08:12:39;3.00;;;0.47;;
73113;SDS011;61301;51.956;5.876;2024-03-02T08:15:05;2.45;;;1.20;;
73113;SDS011;61301;51.956;5.876;2024-03-02T08:17:32;2.85;;;0.73;;
73113;SDS011;61301;51.956;5.876;2024-03-02T08:19:58;1.58;;;0.43;;
73113;SDS011;61301;51.956;5.876;2024-03-02T08:22:24;1.88;;;0.63;;
73113;SDS011;61301;51.956;5.876;2024-03-02T08:24:53;1.27;;;0.52;;
73113;SDS011;61301;51.956;5.876;2024-03-02T08:27:20;1.67;;;0.30;;
73113;SDS011;61301;51.956;5.876;2024-03-02T08:29:46;1.88;;;0.57;;
73113;SDS011;61301;51.956;5.876;2024-03-02T08:32:12;4.40;;;0.65;;
73113;SDS011;61301;51.956;5.876;2024-03-02T08:34:38;2.55;;;0.50;;
73113;SDS011;61301;51.956;5.876;2024-03-02T08:37:04;1.63;;;0.50;;
73113;SDS011;61301;51.956;5.876;2024-03-02T08:39:30;2.20;;;0.45;;
73113;SDS011;61301;51.956;5.876;2024-03-02T08:42:00;3.50;;;0.50;;
73113;SDS011;61301;51.956;5.876;2024-03-02T08:44:26;3.08;;;0.60;;
73113;SDS011;61301;51.956;5.876;2024-03-02T08:46:52;1.42;;;0.50;;
73113;SDS011;61301;51.956;5.876;2024-03-02T08:49:18;2.50;;;0.63;;
73113;SDS011;61301;51.956;5.876;2024-03-02T08:51:44;0.88;;;0.45;;
73113;SDS011;61301;51.956;5.876;2024-03-02T08:54:10;3.40;;;0.90;;
73113;SDS011;61301;51.956;5.876;2024-03-02T08:56:36;2.22;;;0.70;;
73113;SDS011;61301;51.956;5.876;2024-03-02T08:59:02;4.90;;;0.73;;
73113;SDS011;61301;51.956;5.876;2024-03-02T09:01:28;1.67;;;0.90;;
73113;SDS011;61301;51.956;5.876;2024-03-02T09:03:54;2.55;;;0.70;;
73113;SDS011;61301;51.956;5.876;2024-03-02T09:06:20;4.32;;;1.38;;
73113;SDS011;61301;51.956;5.876;2024-03-02T09:08:47;3.53;;;1.02;;
73113;SDS011;61301;51.956;5.876;2024-03-02T09:11:15;3.97;;;1.10;;
73113;SDS011;61301;51.956;5.876;2024-03-02T09:13:41;1.55;;;0.82;;
73113;SDS011;61301;51.956;5.876;2024-03-02T09:16:07;5.57;;;1.40;;
73113;SDS011;61301;51.956;5.876;2024-03-02T09:18:36;2.95;;;0.75;;
73113;SDS011;61301;51.956;5.876;2024-03-02T09:21:05;3.30;;;1.00;;
73113;SDS011;61301;51.956;5.876;2024-03-02T09:23:32;2.15;;;0.80;;
73113;SDS011;61301;51.956;5.876;2024-03-02T09:25:58;2.20;;;0.73;;
73113;SDS011;61301;51.956;5.876;2024-03-02T09:28:25;4.97;;;1.00;;
73113;SDS011;61301;51.956;5.876;2024-03-02T09:30:51;2.85;;;0.75;;
73113;SDS011;61301;51.956;5.876;2024-03-02T09:33:20;4.13;;;0.80;;
73113;SDS011;61301;51.956;5.876;2024-03-02T09:35:46;2.30;;;0.60;;
73113;SDS011;61301;51.956;5.876;2024-03-02T09:38:12;2.03;;;0.70;;
73113;SDS011;61301;51.956;5.876;2024-03-02T09:40:39;3.13;;;0.60;;
73113;SDS011;61301;51.956;5.876;2024-03-02T09:43:07;2.00;;;0.52;;
73113;SDS011;61301;51.956;5.876;2024-03-02T09:45:33;1.92;;;0.40;;
73113;SDS011;61301;51.956;5.876;2024-03-02T09:47:59;4.07;;;0.98;;
73113;SDS011;61301;51.956;5.876;2024-03-02T09:50:26;4.43;;;1.00;;
73113;SDS011;61301;51.956;5.876;2024-03-02T09:52:52;2.97;;;0.90;;
73113;SDS011;61301;51.956;5.876;2024-03-02T09:55:18;1.90;;;0.90;;
73113;SDS011;61301;51.956;5.876;2024-03-02T09:57:45;3.80;;;1.08;;
73113;SDS011;61301;51.956;5.876;2024-03-02T10:00:12;2.53;;;0.68;;
73113;SDS011;61301;51.956;5.876;2024-03-02T10:02:43;1.73;;;0.57;;
73113;SDS011;61301;51.956;5.876;2024-03-02T10:05:10;3.00;;;0.73;;
73113;SDS011;61301;51.956;5.876;2024-03-02T10:07:37;3.15;;;0.60;;
73113;SDS011;61301;51.956;5.876;2024-03-02T10:10:12;2.95;;;0.75;;
73113;SDS011;61301;51.956;5.876;2024-03-02T10:12:39;3.88;;;0.80;;
73113;SDS011;61301;51.956;5.876;2024-03-02T10:15:05;2.20;;;0.80;;
73113;SDS011;61301;51.956;5.876;2024-03-02T10:17:33;2.38;;;0.60;;
73113;SDS011;61301;51.956;5.876;2024-03-02T10:19:59;3.65;;;0.65;;
73113;SDS011;61301;51.956;5.876;2024-03-02T10:22:25;4.25;;;0.90;;
73113;SDS011;61301;51.956;5.876;2024-03-02T10:24:52;2.83;;;0.70;;
73113;SDS011;61301;51.956;5.876;2024-03-02T10:27:22;4.15;;;0.88;;
73113;SDS011;61301;51.956;5.876;2024-03-02T10:29:49;1.75;;;0.70;;
73113;SDS011;61301;51.956;5.876;2024-03-02T10:32:15;3.45;;;0.57;;
73113;SDS011;61301;51.956;5.876;2024-03-02T10:34:42;2.40;;;0.85;;
73113;SDS011;61301;51.956;5.876;2024-03-02T10:37:11;4.97;;;0.70;;
73113;SDS011;61301;51.956;5.876;2024-03-02T10:39:37;3.50;;;0.93;;
73113;SDS011;61301;51.956;5.876;2024-03-02T10:42:07;5.25;;;0.95;;
73113;SDS011;61301;51.956;5.876;2024-03-02T10:44:37;2.50;;;0.60;;
73113;SDS011;61301;51.956;5.876;2024-03-02T10:47:05;2.88;;;0.50;;
73113;SDS011;61301;51.956;5.876;2024-03-02T10:49:31;2.28;;;0.60;;
73113;SDS011;61301;51.956;5.876;2024-03-02T10:51:58;3.15;;;0.75;;
73113;SDS011;61301;51.956;5.876;2024-03-02T10:54:25;4.57;;;0.65;;
73113;SDS011;61301;51.956;5.876;2024-03-02T10:57:01;1.33;;;0.50;;
73113;SDS011;61301;51.956;5.876;2024-03-02T10:59:34;1.33;;;0.45;;
73113;SDS011;61301;51.956;5.876;2024-03-02T11:02:02;5.45;;;1.38;;
73113;SDS011;61301;51.956;5.876;2024-03-02T11:04:29;2.75;;;0.50;;
73113;SDS011;61301;51.956;5.876;2024-03-02T11:07:04;3.10;;;1.25;;
73113;SDS011;61301;51.956;5.876;2024-03-02T11:09:40;4.47;;;0.88;;
73113;SDS011;61301;51.956;5.876;2024-03-02T11:14:52;2.75;;;0.50;;
73113;SDS011;61301;51.956;5.876;2024-03-02T11:17:21;2.80;;;0.80;;
73113;SDS011;61301;51.956;5.876;2024-03-02T11:19:48;1.83;;;0.70;;
73113;SDS011;61301;51.956;5.876;2024-03-02T11:22:15;2.80;;;0.57;;
73113;SDS011;61301;51.956;5.876;2024-03-02T11:24:49;1.52;;;0.52;;
73113;SDS011;61301;51.956;5.876;2024-03-02T11:27:59;2.78;;;0.68;;
73113;SDS011;61301;51.956;5.876;2024-03-02T11:32:59;1.95;;;1.15;;
73113;SDS011;61301;51.956;5.876;2024-03-02T11:35:29;3.78;;;0.70;;
73113;SDS011;61301;51.956;5.876;2024-03-02T11:37:55;1.42;;;0.60;;
73113;SDS011;61301;51.956;5.876;2024-03-02T11:40:24;2.05;;;0.60;;
73113;SDS011;61301;51.956;5.876;2024-03-02T11:42:51;4.15;;;0.90;;
73113;SDS011;61301;51.956;5.876;2024-03-02T11:45:24;1.30;;;0.55;;
73113;SDS011;61301;51.956;5.876;2024-03-02T11:47:52;1.35;;;0.50;;
73113;SDS011;61301;51.956;5.876;2024-03-02T11:50:29;2.95;;;0.75;;
73113;SDS011;61301;51.956;5.876;2024-03-02T11:52:57;1.98;;;0.60;;
73113;SDS011;61301;51.956;5.876;2024-03-02T11:55:25;1.38;;;0.60;;
73113;SDS011;61301;51.956;5.876;2024-03-02T11:57:52;1.27;;;0.40;;
73113;SDS011;61301;51.956;5.876;2024-03-02T12:00:19;1.27;;;0.47;;
73113;SDS011;61301;51.956;5.876;2024-03-02T12:02:46;2.40;;;0.90;;
73113;SDS011;61301;51.956;5.876;2024-03-02T12:05:25;2.63;;;0.50;;
73113;SDS011;61301;51.956;5.876;2024-03-02T12:07:58;3.50;;;0.88;;
73113;SDS011;61301;51.956;5.876;2024-03-02T12:10:26;2.10;;;0.80;;
73113;SDS011;61301;51.956;5.876;2024-03-02T12:13:02;2.63;;;0.68;;
73113;SDS011;61301;51.956;5.876;2024-03-02T12:15:30;1.15;;;0.52;;
73113;SDS011;61301;51.956;5.876;2024-03-02T12:17:59;0.85;;;0.40;;
73113;SDS011;61301;51.956;5.876;2024-03-02T12:20:27;2.00;;;0.57;;
73113;SDS011;61301;51.956;5.876;2024-03-02T12:22:55;3.80;;;1.02;;
73113;SDS011;61301;51.956;5.876;2024-03-02T12:25:24;2.63;;;0.50;;
73113;SDS011;61301;51.956;5.876;2024-03-02T12:27:51;3.28;;;0.50;;
73113;SDS011;61301;51.956;5.876;2024-03-02T12:30:22;2.17;;;0.50;;
73113;SDS011;61301;51.956;5.876;2024-03-02T12:32:49;2.33;;;0.60;;
73113;SDS011;61301;51.956;5.876;2024-03-02T12:35:15;2.25;;;0.40;;
73113;SDS011;61301;51.956;5.876;2024-03-02T12:37:45;3.50;;;0.82;;
73113;SDS011;61301;51.956;5.876;2024-03-02T12:40:13;3.20;;;0.65;;
73113;SDS011;61301;51.956;5.876;2024-03-02T12:42:40;3.47;;;0.90;;
73113;SDS011;61301;51.956;5.876;2024-03-02T12:45:09;2.83;;;0.77;;
73113;SDS011;61301;51.956;5.876;2024-03-02T12:47:39;3.00;;;0.70;;
73113;SDS011;61301;51.956;5.876;2024-03-02T12:50:09;1.48;;;0.50;;
73113;SDS011;61301;51.956;5.876;2024-03-02T12:52:35;4.05;;;0.70;;
73113;SDS011;61301;51.956;5.876;2024-03-02T12:55:02;1.48;;;0.57;;
73113;SDS011;61301;51.956;5.876;2024-03-02T12:57:31;3.03;;;0.80;;
73113;SDS011;61301;51.956;5.876;2024-03-02T12:59:58;2.55;;;0.70;;
73113;SDS011;61301;51.956;5.876;2024-03-02T13:02:34;3.05;;;0.80;;
73113;SDS011;61301;51.956;5.876;2024-03-02T13:05:11;2.60;;;0.82;;
73113;SDS011;61301;51.956;5.876;2024-03-02T13:07:38;0.88;;;0.52;;
73113;SDS011;61301;51.956;5.876;2024-03-02T13:10:05;2.15;;;0.73;;
73113;SDS011;61301;51.956;5.876;2024-03-02T13:12:34;3.17;;;0.80;;
73113;SDS011;61301;51.956;5.876;2024-03-02T13:15:02;3.47;;;0.82;;
73113;SDS011;61301;51.956;5.876;2024-03-02T13:17:29;2.85;;;1.00;;
73113;SDS011;61301;51.956;5.876;2024-03-02T13:19:56;3.15;;;0.85;;
73113;SDS011;61301;51.956;5.876;2024-03-02T13:22:23;2.13;;;0.70;;
73113;SDS011;61301;51.956;5.876;2024-03-02T13:24:50;3.53;;;0.80;;
73113;SDS011;61301;51.956;5.876;2024-03-02T13:27:17;2.75;;;1.00;;
73113;SDS011;61301;51.956;5.876;2024-03-02T13:29:47;3.22;;;0.60;;
73113;SDS011;61301;51.956;5.876;2024-03-02T13:32:16;1.73;;;0.70;;
73113;SDS011;61301;51.956;5.876;2024-03-02T13:34:43;2.03;;;0.90;;
73113;SDS011;61301;51.956;5.876;2024-03-02T13:37:09;2.08;;;1.02;;
73113;SDS011;61301;51.956;5.876;2024-03-02T13:39:35;2.30;;;0.60;;
73113;SDS011;61301;51.956;5.876;2024-03-02T13:42:11;1.98;;;0.80;;
73113;SDS011;61301;51.956;5.876;2024-03-02T13:44:42;3.45;;;0.70;;
73113;SDS011;61301;51.956;5.876;2024-03-02T13:47:11;4.97;;;0.90;;
73113;SDS011;61301;51.956;5.876;2024-03-02T13:49:39;2.15;;;0.73;;
73113;SDS011;61301;51.956;5.876;2024-03-02T13:52:09;2.08;;;0.88;;
73113;SDS011;61301;51.956;5.876;2024-03-02T13:54:37;1.10;;;0.60;;
73113;SDS011;61301;51.956;5.876;2024-03-02T13:57:04;3.00;;;1.23;;
73113;SDS011;61301;51.956;5.876;2024-03-02T13:59:30;2.05;;;0.77;;
73113;SDS011;61301;51.956;5.876;2024-03-02T14:01:56;2.60;;;0.70;;
73113;SDS011;61301;51.956;5.876;2024-03-02T14:04:22;4.63;;;1.23;;
73113;SDS011;61301;51.956;5.876;2024-03-02T14:06:48;3.53;;;1.00;;
73113;SDS011;61301;51.956;5.876;2024-03-02T14:09:14;2.75;;;0.68;;
73113;SDS011;61301;51.956;5.876;2024-03-02T14:11:40;2.92;;;0.93;;
73113;SDS011;61301;51.956;5.876;2024-03-02T14:14:06;4.80;;;1.13;;
73113;SDS011;61301;51.956;5.876;2024-03-02T14:16:32;4.65;;;1.15;;
73113;SDS011;61301;51.956;5.876;2024-03-02T14:18:59;2.28;;;1.10;;
73113;SDS011;61301;51.956;5.876;2024-03-02T14:21:25;1.30;;;0.60;;
73113;SDS011;61301;51.956;5.876;2024-03-02T14:23:51;5.70;;;1.13;;
73113;SDS011;61301;51.956;5.876;2024-03-02T14:26:17;2.08;;;0.70;;
73113;SDS011;61301;51.956;5.876;2024-03-02T14:28:45;3.60;;;0.90;;
73113;SDS011;61301;51.956;5.876;2024-03-02T14:31:11;2.92;;;0.80;;
73113;SDS011;61301;51.956;5.876;2024-03-02T14:33:37;4.60;;;1.00;;
73113;SDS011;61301;51.956;5.876;2024-03-02T14:36:03;2.53;;;0.65;;
73113;SDS011;61301;51.956;5.876;2024-03-02T14:38:30;0.95;;;0.45;;
73113;SDS011;61301;51.956;5.876;2024-03-02T14:40:56;2.70;;;0.70;;
73113;SDS011;61301;51.956;5.876;2024-03-02T14:43:23;2.40;;;0.80;;
73113;SDS011;61301;51.956;5.876;2024-03-02T14:45:49;3.85;;;0.73;;
73113;SDS011;61301;51.956;5.876;2024-03-02T14:48:15;1.88;;;0.35;;
73113;SDS011;61301;51.956;5.876;2024-03-02T14:50:41;3.53;;;0.88;;
73113;SDS011;61301;51.956;5.876;2024-03-02T14:53:08;2.13;;;0.70;;
73113;SDS011;61301;51.956;5.876;2024-03-02T14:55:34;3.58;;;0.80;;
73113;SDS011;61301;51.956;5.876;2024-03-02T14:58:00;1.92;;;1.08;;
73113;SDS011;61301;51.956;5.876;2024-03-02T15:00:26;1.58;;;0.68;;
73113;SDS011;61301;51.956;5.876;2024-03-02T15:02:52;3.67;;;0.63;;
73113;SDS011;61301;51.956;5.876;2024-03-02T15:05:18;3.92;;;0.65;;